createdAt,value
2023-02-04T00:00:14.624Z,4.78
2023-02-04T00:02:42.230Z,5.15
2023-02-04T00:05:10.302Z,4.96
2023-02-04T00:07:37.886Z,4.99
2023-02-04T00:10:06.170Z,4.95
2023-02-04T00:12:34.517Z,5.65
2023-02-04T00:15:01.713Z,5.41
2023-02-04T00:17:29.326Z,5.62
2023-02-04T00:19:56.506Z,5.60
2023-02-04T00:22:23.942Z,5.07
2023-02-04T00:24:51.660Z,4.85
2023-02-04T00:27:18.823Z,5.16
2023-02-04T00:29:46.265Z,4.62
2023-02-04T00:32:14.141Z,4.39
2023-02-04T00:34:41.488Z,4.44
2023-02-04T00:37:08.791Z,4.50
2023-02-04T00:39:36.287Z,4.63
2023-02-04T00:42:06.341Z,4.65
2023-02-04T00:44:36.735Z,4.62
2023-02-04T00:47:04.512Z,5.19
2023-02-04T00:49:31.901Z,4.56
2023-02-04T00:51:59.281Z,5.01
2023-02-04T00:54:26.878Z,4.81
2023-02-04T00:56:54.228Z,5.21
2023-02-04T00:59:21.402Z,6.17
2023-02-04T01:01:48.862Z,5.18
2023-02-04T01:04:16.065Z,4.92
2023-02-04T01:06:44.361Z,5.80
2023-02-04T01:09:12.061Z,6.34
2023-02-04T01:11:39.353Z,5.28
2023-02-04T01:14:06.683Z,5.71
2023-02-04T01:16:34.189Z,6.25
2023-02-04T01:19:01.565Z,6.30
2023-02-04T01:21:28.740Z,6.55
2023-02-04T01:23:56.232Z,6.21
2023-02-04T01:26:23.641Z,6.45
2023-02-04T01:28:50.927Z,6.49
2023-02-04T01:31:18.691Z,6.57
2023-02-04T01:33:45.923Z,6.37
2023-02-04T01:36:13.739Z,6.89
2023-02-04T01:38:41.330Z,5.74
2023-02-04T01:41:08.857Z,5.91
2023-02-04T01:43:36.293Z,6.04
2023-02-04T01:46:04.196Z,6.32
2023-02-04T01:48:31.540Z,6.37
2023-02-04T01:51:11.530Z,6.93
2023-02-04T01:53:39.344Z,6.16
2023-02-04T01:56:11.900Z,5.47
2023-02-04T01:58:39.437Z,6.39
2023-02-04T02:01:10.229Z,5.94
2023-02-04T02:03:37.804Z,5.75
2023-02-04T02:06:06.060Z,5.98
2023-02-04T02:08:33.238Z,6.97
2023-02-04T02:11:00.777Z,7.00
2023-02-04T02:13:27.962Z,6.44
2023-02-04T02:15:55.568Z,6.44
2023-02-04T02:18:23.377Z,6.87
2023-02-04T02:20:51.108Z,7.42
2023-02-04T02:23:27.362Z,6.43
2023-02-04T02:25:54.818Z,5.83
2023-02-04T02:28:24.578Z,6.40
2023-02-04T02:30:52.416Z,6.90
2023-02-04T02:33:20.553Z,7.03
2023-02-04T02:35:51.125Z,6.94
2023-02-04T02:38:19.371Z,7.14
2023-02-04T02:40:50.184Z,7.14
2023-02-04T02:43:18.994Z,7.18
2023-02-04T02:45:46.879Z,6.92
2023-02-04T02:48:14.489Z,6.94
2023-02-04T02:50:41.948Z,7.13
2023-02-04T02:53:12.360Z,6.95
2023-02-04T02:55:40.143Z,7.60
2023-02-04T02:58:19.297Z,7.35
2023-02-04T03:00:46.593Z,7.20
2023-02-04T03:03:16.228Z,7.09
2023-02-04T03:05:44.041Z,7.16
2023-02-04T03:08:12.306Z,7.41
2023-02-04T03:10:39.724Z,6.95
2023-02-04T03:13:07.239Z,7.14
2023-02-04T03:15:35.073Z,7.02
2023-02-04T03:18:02.741Z,7.20
2023-02-04T03:20:30.943Z,7.07
2023-02-04T03:22:58.727Z,7.35
2023-02-04T03:25:28.894Z,7.41
2023-02-04T03:27:57.725Z,7.81
2023-02-04T03:30:25.365Z,7.66
2023-02-04T03:32:53.220Z,7.44
2023-02-04T03:35:20.589Z,7.58
2023-02-04T03:37:47.843Z,7.33
2023-02-04T03:40:15.545Z,6.98
2023-02-04T03:42:42.908Z,7.11
2023-02-04T03:45:10.495Z,7.09
2023-02-04T03:47:38.102Z,6.54
2023-02-04T03:50:05.473Z,6.72
2023-02-04T03:52:36.097Z,6.92
2023-02-04T03:55:03.720Z,6.99
2023-02-04T03:57:30.889Z,6.45
2023-02-04T03:59:58.165Z,6.87
2023-02-04T04:02:25.722Z,6.78
2023-02-04T04:04:53.198Z,6.72
2023-02-04T04:07:20.477Z,6.45
2023-02-04T04:09:47.755Z,6.84
2023-02-04T04:12:15.271Z,6.14
2023-02-04T04:14:42.521Z,5.79
2023-02-04T04:17:10.021Z,5.60
2023-02-04T04:19:37.485Z,6.28
2023-02-04T04:22:04.785Z,6.94
2023-02-04T04:24:32.190Z,6.81
2023-02-04T04:26:59.610Z,6.52
2023-02-04T04:29:26.746Z,7.09
2023-02-04T04:31:54.123Z,6.23
2023-02-04T04:34:21.724Z,6.82
2023-02-04T04:36:48.873Z,6.58
2023-02-04T04:39:16.097Z,6.50
2023-02-04T04:41:43.769Z,6.40
2023-02-04T04:44:11.002Z,5.80
2023-02-04T04:46:38.194Z,6.32
2023-02-04T04:49:05.923Z,6.52
2023-02-04T04:51:33.199Z,5.79
2023-02-04T04:54:00.329Z,5.70
2023-02-04T04:56:27.836Z,6.00
2023-02-04T04:58:55.078Z,6.19
2023-02-04T05:01:22.872Z,6.91
2023-02-04T05:03:50.721Z,7.23
2023-02-04T05:06:18.161Z,7.44
2023-02-04T05:08:45.414Z,6.38
2023-02-04T05:11:12.851Z,6.62
2023-02-04T05:13:40.068Z,7.17
2023-02-04T05:16:07.427Z,6.88
2023-02-04T05:18:35.004Z,7.06
2023-02-04T05:21:02.151Z,7.18
2023-02-04T05:23:29.329Z,6.87
2023-02-04T05:25:56.783Z,6.91
2023-02-04T05:28:24.037Z,6.68
2023-02-04T05:30:51.244Z,7.15
2023-02-04T05:33:18.686Z,6.65
2023-02-04T05:35:45.993Z,6.68
2023-02-04T05:38:13.163Z,6.99
2023-02-04T05:40:40.679Z,6.85
2023-02-04T05:43:07.859Z,7.13
2023-02-04T05:45:35.248Z,6.93
2023-02-04T05:48:02.681Z,7.22
2023-02-04T05:50:30.045Z,6.42
2023-02-04T05:53:08.804Z,5.63
2023-02-04T05:55:36.136Z,6.10
2023-02-04T05:58:03.403Z,5.89
2023-02-04T06:00:31.058Z,5.45
2023-02-04T06:02:58.680Z,5.44
2023-02-04T06:05:25.887Z,5.17
2023-02-04T06:07:53.053Z,5.35
2023-02-04T06:10:21.362Z,5.30
2023-02-04T06:12:48.590Z,4.65
2023-02-04T06:15:15.921Z,5.10
2023-02-04T06:17:43.371Z,5.10
2023-02-04T06:20:11.198Z,4.76
2023-02-04T06:22:38.456Z,5.05
2023-02-04T06:25:06.090Z,5.13
2023-02-04T06:27:33.229Z,4.77
2023-02-04T06:30:00.472Z,5.00
2023-02-04T06:32:27.917Z,5.21
2023-02-04T06:34:55.165Z,4.76
2023-02-04T06:37:24.312Z,4.82
2023-02-04T06:39:52.491Z,4.85
2023-02-04T06:42:20.361Z,4.68
2023-02-04T06:44:47.517Z,4.82
2023-02-04T06:47:15.014Z,4.92
2023-02-04T06:49:42.159Z,4.96
2023-02-04T06:52:09.364Z,5.15
2023-02-04T06:54:36.890Z,5.06
2023-02-04T06:57:06.812Z,5.42
2023-02-04T06:59:34.738Z,5.06
2023-02-04T07:02:02.299Z,4.64
2023-02-04T07:04:29.703Z,4.48
2023-02-04T07:06:57.534Z,4.84
2023-02-04T07:09:25.059Z,4.70
2023-02-04T07:11:52.218Z,4.82
2023-02-04T07:14:19.350Z,4.57
2023-02-04T07:16:47.107Z,4.33
2023-02-04T07:19:14.356Z,4.38
2023-02-04T07:21:41.516Z,4.45
2023-02-04T07:24:08.938Z,4.18
2023-02-04T07:26:36.331Z,4.32
2023-02-04T07:29:03.490Z,3.84
2023-02-04T07:31:31.049Z,3.92
2023-02-04T07:33:58.656Z,3.91
2023-02-04T07:36:26.292Z,4.29
2023-02-04T07:38:53.862Z,4.40
2023-02-04T07:41:21.800Z,4.00
2023-02-04T07:43:49.016Z,4.06
2023-02-04T07:46:16.563Z,3.86
2023-02-04T07:48:43.873Z,3.68
2023-02-04T07:51:11.439Z,4.17
2023-02-04T07:53:38.923Z,3.78
2023-02-04T07:56:06.597Z,3.97
2023-02-04T07:58:34.266Z,3.82
2023-02-04T08:01:02.073Z,4.50
2023-02-04T08:03:29.804Z,4.33
2023-02-04T08:05:57.296Z,4.27
2023-02-04T08:08:24.634Z,4.33
2023-02-04T08:10:52.437Z,4.03
2023-02-04T08:13:19.874Z,3.33
2023-02-04T08:15:47.421Z,3.70
2023-02-04T08:18:15.200Z,3.65
2023-02-04T08:20:42.584Z,3.85
2023-02-04T08:23:09.986Z,4.27
2023-02-04T08:25:37.787Z,3.72
2023-02-04T08:28:05.232Z,3.79
2023-02-04T08:30:32.935Z,3.98
2023-02-04T08:33:00.854Z,3.87
2023-02-04T08:35:28.262Z,3.92
2023-02-04T08:37:55.626Z,4.02
2023-02-04T08:40:23.306Z,3.80
2023-02-04T08:42:50.673Z,3.67
2023-02-04T08:45:18.068Z,3.71
2023-02-04T08:47:45.789Z,3.69
2023-02-04T08:50:13.465Z,3.63
2023-02-04T08:52:40.840Z,3.51
2023-02-04T08:55:08.812Z,3.80
2023-02-04T08:57:36.210Z,3.70
2023-02-04T09:00:04.044Z,3.61
2023-02-04T09:02:31.780Z,3.64
2023-02-04T09:04:59.152Z,3.74
2023-02-04T09:07:26.550Z,3.60
2023-02-04T09:09:54.220Z,4.03
2023-02-04T09:12:21.608Z,3.73
2023-02-04T09:14:49.004Z,3.63
2023-02-04T09:17:16.708Z,3.77
2023-02-04T09:19:44.274Z,3.83
2023-02-04T09:22:13.324Z,3.98
2023-02-04T09:24:41.306Z,4.20
2023-02-04T09:27:08.718Z,4.08
2023-02-04T09:29:36.178Z,4.22
2023-02-04T09:32:03.948Z,4.08
2023-02-04T09:34:31.389Z,4.26
2023-02-04T09:36:58.748Z,4.58
2023-02-04T09:39:26.396Z,4.61
2023-02-04T09:41:56.601Z,5.12
2023-02-04T09:44:25.945Z,4.44
2023-02-04T09:46:56.104Z,4.58
2023-02-04T09:49:23.762Z,5.59
2023-02-04T09:51:51.448Z,5.23
2023-02-04T09:54:22.234Z,4.68
2023-02-04T09:56:50.625Z,4.60
2023-02-04T09:59:20.937Z,5.43
2023-02-04T10:01:55.623Z,6.05
2023-02-04T10:04:23.685Z,5.58
2023-02-04T10:06:51.128Z,5.13
2023-02-04T10:09:18.762Z,4.33
2023-02-04T10:11:48.040Z,4.42
2023-02-04T10:14:18.451Z,3.98
2023-02-04T10:17:00.165Z,4.46
2023-02-04T10:19:29.260Z,4.28
2023-02-04T10:21:57.772Z,4.34
2023-02-04T10:24:30.616Z,4.57
2023-02-04T10:27:08.948Z,4.58
2023-02-04T10:29:36.560Z,4.31
2023-02-04T10:32:04.356Z,4.64
2023-02-04T10:34:39.689Z,4.30
2023-02-04T10:37:22.221Z,4.07
2023-02-04T10:39:49.974Z,4.33
2023-02-04T10:42:23.428Z,4.38
2023-02-04T10:44:50.926Z,4.10
2023-02-04T10:47:20.964Z,3.89
2023-02-04T10:49:59.209Z,4.12
2023-02-04T10:52:35.714Z,4.30
2023-02-04T10:55:09.093Z,4.21
2023-02-04T10:57:39.168Z,4.09
2023-02-04T11:00:17.462Z,4.21
2023-02-04T11:02:49.631Z,4.05
2023-02-04T11:05:22.540Z,4.04
2023-02-04T11:07:50.941Z,4.01
2023-02-04T11:10:23.630Z,4.29
2023-02-04T11:12:54.221Z,4.29
2023-02-04T11:16:11.137Z,4.26
2023-02-04T11:18:58.464Z,4.13
2023-02-04T11:21:28.641Z,4.64
2023-02-04T11:24:24.018Z,4.45
2023-02-04T11:26:54.089Z,4.37
2023-02-04T11:29:29.800Z,4.50
2023-02-04T11:32:00.873Z,4.61
2023-02-04T11:34:30.552Z,4.74
2023-02-04T11:37:00.976Z,4.74
2023-02-04T11:39:33.352Z,4.90
2023-02-04T11:42:01.194Z,4.85
2023-02-04T11:44:28.880Z,4.99
2023-02-04T11:46:56.633Z,5.10
2023-02-04T11:49:24.959Z,4.75
2023-02-04T11:52:02.806Z,4.56
2023-02-04T11:54:29.963Z,4.50
2023-02-04T11:56:59.454Z,4.45
2023-02-04T11:59:26.672Z,4.17
2023-02-04T12:02:04.006Z,4.58
2023-02-04T12:04:31.437Z,4.80
2023-02-04T12:06:59.561Z,4.77
2023-02-04T12:09:27.388Z,4.32
2023-02-04T12:11:59.026Z,4.16
2023-02-04T12:14:33.399Z,4.26
2023-02-04T12:17:01.018Z,4.35
2023-02-04T12:19:28.397Z,4.09
2023-02-04T12:21:55.947Z,4.58
2023-02-04T12:24:23.429Z,4.45
2023-02-04T12:26:51.730Z,4.41
2023-02-04T12:29:18.929Z,4.27
2023-02-04T12:31:46.530Z,4.33
2023-02-04T12:34:13.979Z,4.46
2023-02-04T12:36:41.125Z,4.77
2023-02-04T12:39:08.714Z,4.65
2023-02-04T12:41:36.280Z,4.92
2023-02-04T12:44:03.540Z,4.64
2023-02-04T12:46:31.257Z,4.49
2023-02-04T12:48:58.642Z,4.51
2023-02-04T12:51:25.828Z,4.42
2023-02-04T12:53:53.260Z,4.36
2023-02-04T12:56:20.750Z,4.34
2023-02-04T12:58:47.960Z,4.65
2023-02-04T13:01:15.435Z,4.38
2023-02-04T13:03:42.638Z,4.17
2023-02-04T13:06:09.817Z,3.92
2023-02-04T13:08:37.265Z,4.32
2023-02-04T13:11:04.458Z,4.33
2023-02-04T13:13:34.395Z,4.21
2023-02-04T13:16:01.889Z,3.99
2023-02-04T13:18:29.116Z,4.14
2023-02-04T13:20:56.305Z,4.09
2023-02-04T13:23:24.224Z,3.82
2023-02-04T13:25:52.010Z,3.84
2023-02-04T13:28:19.274Z,4.11
2023-02-04T13:30:47.262Z,4.10
2023-02-04T13:33:14.859Z,4.21
2023-02-04T13:35:42.039Z,3.69
2023-02-04T13:38:09.486Z,3.72
2023-02-04T13:40:36.696Z,4.48
2023-02-04T13:43:03.901Z,4.30
2023-02-04T13:45:31.840Z,4.26
2023-02-04T13:47:59.217Z,4.32
2023-02-04T13:50:26.458Z,4.20
2023-02-04T13:52:55.276Z,4.26
2023-02-04T13:55:22.431Z,4.63
2023-02-04T13:57:49.586Z,4.52
2023-02-04T14:00:17.105Z,4.27
2023-02-04T14:02:44.638Z,4.30
2023-02-04T14:05:12.041Z,4.51
2023-02-04T14:07:39.302Z,4.26
2023-02-04T14:10:06.990Z,4.31
2023-02-04T14:12:34.505Z,4.42
2023-02-04T14:15:02.185Z,3.88
2023-02-04T14:17:29.628Z,3.50
2023-02-04T14:19:56.942Z,3.98
2023-02-04T14:22:24.136Z,4.55
2023-02-04T14:24:52.373Z,4.87
2023-02-04T14:27:19.939Z,4.65
2023-02-04T14:29:47.290Z,4.09
2023-02-04T14:32:14.877Z,3.71
2023-02-04T14:34:42.053Z,3.84
2023-02-04T14:37:10.561Z,3.65
2023-02-04T14:39:38.143Z,4.32
2023-02-04T14:42:07.743Z,3.45
2023-02-04T14:44:34.906Z,3.62
2023-02-04T14:47:02.634Z,3.65
2023-02-04T14:49:30.215Z,3.31
2023-02-04T14:51:57.421Z,3.74
2023-02-04T14:54:25.054Z,3.11
2023-02-04T14:56:52.639Z,2.89
2023-02-04T14:59:19.791Z,2.95
2023-02-04T15:01:47.632Z,3.02
2023-02-04T15:04:15.064Z,2.90
2023-02-04T15:06:42.277Z,3.14
2023-02-04T15:09:09.831Z,3.42
2023-02-04T15:11:37.019Z,2.90
2023-02-04T15:14:04.724Z,2.67
2023-02-04T15:16:32.906Z,2.83
2023-02-04T15:19:00.373Z,2.43
2023-02-04T15:21:29.466Z,2.81
2023-02-04T15:23:57.086Z,2.35
2023-02-04T15:26:25.259Z,2.10
2023-02-04T15:28:53.053Z,2.11
2023-02-04T15:31:20.596Z,2.65
2023-02-04T15:33:48.085Z,2.23
2023-02-04T15:36:15.533Z,2.02
2023-02-04T15:38:43.235Z,1.94
2023-02-04T15:41:10.620Z,1.76
2023-02-04T15:43:37.826Z,1.85
2023-02-04T15:46:07.135Z,1.61
2023-02-04T15:48:34.532Z,1.83
2023-02-04T15:51:01.943Z,1.50
2023-02-04T15:53:29.358Z,1.47
2023-02-04T15:55:56.515Z,1.80
2023-02-04T15:58:23.891Z,1.82
2023-02-04T16:00:51.314Z,1.59
2023-02-04T16:03:18.829Z,1.61
2023-02-04T16:05:47.136Z,1.58
2023-02-04T16:08:19.319Z,1.71
2023-02-04T16:10:46.813Z,1.89
2023-02-04T16:13:14.246Z,2.00
2023-02-04T16:15:44.178Z,1.93
2023-02-04T16:18:12.279Z,1.77
2023-02-04T16:20:39.744Z,1.88
2023-02-04T16:23:08.465Z,2.33
2023-02-04T16:25:40.082Z,1.66
2023-02-04T16:28:08.310Z,1.44
2023-02-04T16:30:35.798Z,1.71
2023-02-04T16:33:06.943Z,1.61
2023-02-04T16:35:56.006Z,1.77
2023-02-04T16:38:24.247Z,1.72
2023-02-04T16:40:51.494Z,1.71
2023-02-04T16:43:19.009Z,1.89
2023-02-04T16:45:46.498Z,1.95
2023-02-04T16:48:14.162Z,1.68
2023-02-04T16:50:41.550Z,1.73
2023-02-04T16:53:14.818Z,1.71
2023-02-04T16:55:45.703Z,1.81
2023-02-04T16:58:13.556Z,1.84
2023-02-04T17:00:42.107Z,1.51
2023-02-04T17:03:10.051Z,1.70
2023-02-04T17:05:39.232Z,2.09
2023-02-04T17:08:07.186Z,2.14
2023-02-04T17:10:53.384Z,1.85
2023-02-04T17:13:21.310Z,1.66
2023-02-04T17:15:48.884Z,2.10
2023-02-04T17:18:16.177Z,2.02
2023-02-04T17:20:43.820Z,2.22
2023-02-04T17:23:11.073Z,2.53
2023-02-04T17:25:38.353Z,2.00
2023-02-04T17:28:06.247Z,2.46
2023-02-04T17:30:34.167Z,2.42
2023-02-04T17:33:04.531Z,2.94
2023-02-04T17:35:33.375Z,2.47
2023-02-04T17:38:07.222Z,2.25
2023-02-04T17:40:35.116Z,2.19
2023-02-04T17:43:03.351Z,1.82
2023-02-04T17:45:31.509Z,1.80
2023-02-04T17:47:59.432Z,2.31
2023-02-04T17:50:26.893Z,2.16
2023-02-04T17:52:55.850Z,2.15
2023-02-04T17:55:29.195Z,1.82
2023-02-04T17:58:00.995Z,1.65
2023-02-04T18:00:29.669Z,1.99
2023-02-04T18:02:58.845Z,2.88
2023-02-04T18:05:28.085Z,3.18
2023-02-04T18:08:02.408Z,2.71
2023-02-04T18:10:34.211Z,2.02
2023-02-04T18:13:03.446Z,2.10
2023-02-04T18:15:32.456Z,1.70
2023-02-04T18:18:03.899Z,2.15
2023-02-04T18:20:33.411Z,2.19
2023-02-04T18:23:03.014Z,2.10
2023-02-04T18:25:31.111Z,2.20
2023-02-04T18:28:01.328Z,1.46
2023-02-04T18:30:29.132Z,3.01
2023-02-04T18:32:56.796Z,2.51
2023-02-04T18:35:32.154Z,3.18
2023-02-04T18:38:01.031Z,3.71
2023-02-04T18:40:30.624Z,3.32
2023-02-04T18:43:17.861Z,4.12
2023-02-04T18:45:47.701Z,3.30
2023-02-04T18:48:21.344Z,3.45
2023-02-04T18:50:54.204Z,3.44
2023-02-04T18:53:28.233Z,3.52
2023-02-04T18:55:57.996Z,3.90
2023-02-04T18:58:32.436Z,2.90
2023-02-04T19:01:12.702Z,4.29
2023-02-04T19:03:53.923Z,3.10
2023-02-04T19:06:30.537Z,3.42
2023-02-04T19:09:10.590Z,2.88
2023-02-04T19:11:39.349Z,2.24
2023-02-04T19:14:24.805Z,2.52
2023-02-04T19:16:54.776Z,1.65
2023-02-04T19:19:48.609Z,1.14
2023-02-04T19:22:38.778Z,1.27
2023-02-04T19:25:29.734Z,1.50
2023-02-04T19:28:00.612Z,1.21
2023-02-04T19:30:28.323Z,1.29
2023-02-04T19:32:57.483Z,1.13
2023-02-04T19:35:26.549Z,1.45
2023-02-04T19:37:55.112Z,1.75
2023-02-04T19:40:27.754Z,1.95
2023-02-04T19:42:59.077Z,1.26
2023-02-04T19:45:26.604Z,1.72
2023-02-04T19:47:55.756Z,1.84
2023-02-04T19:50:34.791Z,1.66
2023-02-04T19:53:11.162Z,1.57
2023-02-04T19:55:45.057Z,1.29
2023-02-04T19:58:23.388Z,1.46
2023-02-04T20:01:04.493Z,1.29
2023-02-04T20:03:43.899Z,1.36
2023-02-04T20:06:44.335Z,1.44
2023-02-04T20:09:34.009Z,1.25
2023-02-04T20:12:07.202Z,0.74
2023-02-04T20:14:51.975Z,1.14
2023-02-04T20:17:22.328Z,0.98
2023-02-04T20:19:51.416Z,0.88
2023-02-04T20:22:19.198Z,1.16
2023-02-04T20:25:27.596Z,1.59
2023-02-04T20:28:01.075Z,1.05
2023-02-04T20:30:31.037Z,1.22
2023-02-04T20:33:18.605Z,1.23
2023-02-04T20:35:52.363Z,1.07
2023-02-04T20:38:20.585Z,1.03
2023-02-04T20:40:49.309Z,0.74
2023-02-04T20:43:20.296Z,0.79
2023-02-04T20:45:49.779Z,0.69
2023-02-04T20:48:16.981Z,0.97
2023-02-04T20:50:48.215Z,1.03
2023-02-04T20:53:29.784Z,1.04
2023-02-04T20:56:05.102Z,0.94
2023-02-04T20:58:37.704Z,0.96
2023-02-04T21:01:38.306Z,0.88
2023-02-04T21:04:26.800Z,0.93
2023-02-04T21:06:55.866Z,1.03
2023-02-04T21:09:25.051Z,0.40
2023-02-04T21:11:55.077Z,0.47
2023-02-04T21:14:23.115Z,0.51
2023-02-04T21:16:50.755Z,0.21
2023-02-04T21:19:27.430Z,0.16
2023-02-04T21:21:57.859Z,0.15
2023-02-04T21:24:25.534Z,0.17
2023-02-04T21:26:53.505Z,0.04
2023-02-04T21:29:21.400Z,0.36
2023-02-04T21:31:48.980Z,0.53
2023-02-04T21:34:16.657Z,0.43
2023-02-04T21:36:44.341Z,-0.01
2023-02-04T21:39:11.798Z,0.02
2023-02-04T21:41:39.148Z,0.36
2023-02-04T21:44:06.803Z,0.63
2023-02-04T21:46:34.581Z,0.75
2023-02-04T21:49:02.507Z,0.67
2023-02-04T21:51:30.039Z,0.68
2023-02-04T21:53:57.881Z,0.81
2023-02-04T21:56:25.179Z,1.34
2023-02-04T21:58:53.866Z,1.30
2023-02-04T22:01:21.082Z,0.88
2023-02-04T22:03:48.595Z,0.62
2023-02-04T22:06:15.786Z,0.74
2023-02-04T22:08:43.048Z,0.89
2023-02-04T22:11:10.518Z,0.52
2023-02-04T22:13:56.490Z,0.44
2023-02-04T22:16:24.218Z,0.66
2023-02-04T22:18:51.421Z,0.61
2023-02-04T22:21:18.566Z,0.25
2023-02-04T22:23:46.012Z,0.12
2023-02-04T22:26:13.154Z,0.31
2023-02-04T22:28:40.404Z,0.37
2023-02-04T22:31:07.968Z,0.10
2023-02-04T22:33:35.281Z,0.29
2023-02-04T22:36:02.477Z,0.25
2023-02-04T22:38:29.926Z,0.19
2023-02-04T22:40:57.084Z,0.11
2023-02-04T22:43:24.503Z,0.33
2023-02-04T22:45:51.980Z,0.15
2023-02-04T22:48:19.150Z,-0.06
2023-02-04T22:50:46.316Z,0.29
2023-02-04T22:53:13.800Z,0.21
2023-02-04T22:55:40.985Z,0.56
2023-02-04T22:58:08.143Z,0.44
2023-02-04T23:00:35.614Z,0.27
2023-02-04T23:03:03.972Z,0.21
2023-02-04T23:05:31.242Z,0.22
2023-02-04T23:07:58.821Z,0.34
2023-02-04T23:10:26.086Z,0.35
2023-02-04T23:12:53.249Z,0.42
2023-02-04T23:15:20.672Z,0.23
2023-02-04T23:17:47.818Z,0.34
2023-02-04T23:20:15.000Z,0.13
2023-02-04T23:22:42.445Z,0.13
2023-02-04T23:25:09.810Z,0.07
2023-02-04T23:27:36.957Z,0.25
2023-02-04T23:30:06.293Z,0.62
2023-02-04T23:32:34.819Z,0.53
2023-02-04T23:35:01.978Z,0.79
2023-02-04T23:37:29.434Z,0.74
2023-02-04T23:39:56.861Z,0.95
2023-02-04T23:42:24.024Z,1.43
2023-02-04T23:44:51.480Z,0.91
2023-02-04T23:47:18.641Z,1.35
2023-02-04T23:49:45.821Z,0.59
2023-02-04T23:52:13.868Z,0.51
2023-02-04T23:54:41.745Z,0.84
2023-02-04T23:57:11.112Z,1.35
2023-02-04T23:59:42.099Z,0.91
